Time;durP1;ratioP1;P1;durP2;ratioP2;P2;SDS_P1;SDS_P2;PMS_P1;PMS_P2;Temp;Humidity;BMP_temperature;BMP_pressure;BME280_temperature;BME280_humidity;BME280_pressure;Samples;Min_cycle;Max_cycle;Signal;HPM_P1;HPM_P2
2023/03/27 00:01:15;;;;;;;8.07;3.70;;;7.60;99.90;;;;;;5013173;28;20416;-73
2023/03/27 00:03:42;;;;;;;10.37;3.40;;;7.60;99.90;;;;;;5012568;28;20759;-73
2023/03/27 00:06:10;;;;;;;9.23;4.37;;;7.60;99.90;;;;;;5029173;28;20204;-72
2023/03/27 00:08:37;;;;;;;8.17;3.30;;;7.60;99.90;;;;;;5032226;28;20415;-73
2023/03/27 00:11:04;;;;;;;4.63;3.87;;;7.60;99.90;;;;;;5014354;28;20427;-73
2023/03/27 00:13:30;;;;;;;3.50;3.10;;;7.50;99.90;;;;;;5011917;28;20869;-73
2023/03/27 00:15:57;;;;;;;7.03;4.00;;;7.50;99.90;;;;;;5012126;28;20411;-73
2023/03/27 00:18:23;;;;;;;5.70;3.20;;;7.50;99.90;;;;;;5012345;28;20414;-74
2023/03/27 00:20:50;;;;;;;5.10;2.90;;;7.40;99.90;;;;;;5012960;28;20399;-73
2023/03/27 00:23:18;;;;;;;6.43;3.10;;;7.50;99.90;;;;;;5012972;28;20800;-73
2023/03/27 00:25:47;;;;;;;8.90;3.40;;;7.40;99.90;;;;;;5012294;28;20483;-73
2023/03/27 00:28:14;;;;;;;6.10;3.33;;;7.40;99.90;;;;;;5012881;28;20450;-73
2023/03/27 00:30:41;;;;;;;4.87;3.33;;;7.30;99.90;;;;;;5011469;28;20427;-73
2023/03/27 00:33:12;;;;;;;8.17;2.60;;;7.30;99.90;;;;;;5012872;28;20420;-73
2023/03/27 00:35:43;;;;;;;8.97;3.43;;;7.30;99.90;;;;;;5012211;28;20387;-73
2023/03/27 00:38:08;;;;;;;3.67;2.80;;;7.20;99.90;;;;;;5013889;28;20449;-73
2023/03/27 00:40:36;;;;;;;4.53;2.97;;;7.20;99.90;;;;;;5031824;28;20402;-73
2023/03/27 00:43:17;;;;;;;6.37;3.50;;;7.30;99.90;;;;;;5032041;28;20342;-73
2023/03/27 00:45:43;;;;;;;5.30;2.60;;;7.30;99.90;;;;;;5031757;28;20755;-73
2023/03/27 00:48:09;;;;;;;7.37;2.80;;;7.30;99.90;;;;;;5032480;28;20399;-73
2023/03/27 00:50:39;;;;;;;2.93;2.30;;;7.30;99.90;;;;;;5029240;28;20450;-73
2023/03/27 00:53:08;;;;;;;6.50;2.60;;;7.30;99.90;;;;;;5031137;28;20279;-72
2023/03/27 00:55:40;;;;;;;6.23;2.90;;;7.30;99.90;;;;;;5031713;28;20422;-73
2023/03/27 00:58:43;;;;;;;4.93;2.43;;;7.30;99.90;;;;;;5032465;28;20399;-72
2023/03/27 01:01:12;;;;;;;3.87;2.83;;;7.30;99.90;;;;;;5032718;28;20377;-73
2023/03/27 01:03:42;;;;;;;3.07;2.37;;;7.30;99.90;;;;;;5031646;28;20887;-72
2023/03/27 01:06:09;;;;;;;3.33;3.03;;;7.30;99.90;;;;;;5030675;28;20451;-72
2023/03/27 01:08:36;;;;;;;4.53;2.77;;;7.20;99.90;;;;;;5001009;28;20435;-72
2023/03/27 01:11:34;;;;;;;2.90;2.70;;;7.20;99.90;;;;;;5012504;28;20449;-72
2023/03/27 01:14:27;;;;;;;3.27;2.97;;;7.20;99.90;;;;;;4983648;28;20434;-72
2023/03/27 01:17:14;;;;;;;8.27;3.30;;;7.30;99.90;;;;;;5012737;28;20519;-72
2023/03/27 01:19:52;;;;;;;10.57;2.87;;;7.20;99.90;;;;;;5012267;28;20511;-72
2023/03/27 01:22:52;;;;;;;4.60;3.00;;;7.20;99.90;;;;;;5012224;28;20399;-72
2023/03/27 01:25:51;;;;;;;9.23;3.37;;;7.20;99.90;;;;;;5012074;28;20479;-72
2023/03/27 01:28:50;;;;;;;5.77;3.10;;;7.20;99.90;;;;;;5031979;28;20428;-72
2023/03/27 01:31:39;;;;;;;3.97;3.20;;;7.20;99.90;;;;;;5035717;28;20399;-72
2023/03/27 01:34:23;;;;;;;3.33;2.93;;;7.10;99.90;;;;;;5035746;28;20777;-72
2023/03/27 01:37:01;;;;;;;4.10;3.33;;;7.10;99.90;;;;;;5034574;28;20733;-72
2023/03/27 01:39:46;;;;;;;3.63;3.03;;;7.10;99.90;;;;;;5031495;28;20480;-73
2023/03/27 01:42:31;;;;;;;7.50;3.53;;;7.10;99.90;;;;;;5035492;28;20821;-73
2023/03/27 01:45:15;;;;;;;5.90;3.27;;;6.90;99.90;;;;;;5035784;28;20444;-73
2023/03/27 01:47:58;;;;;;;9.53;3.20;;;6.90;99.90;;;;;;5034873;28;20409;-73
2023/03/27 01:50:42;;;;;;;7.50;3.00;;;7.00;99.90;;;;;;5017862;28;20742;-73
2023/03/27 01:53:22;;;;;;;8.47;3.17;;;7.00;99.90;;;;;;5029919;28;20530;-73
2023/03/27 01:56:04;;;;;;;9.23;2.90;;;7.00;99.90;;;;;;5023079;28;20445;-73
2023/03/27 01:58:35;;;;;;;3.63;3.13;;;7.00;99.90;;;;;;5034694;28;20470;-73
2023/03/27 02:01:02;;;;;;;3.63;3.03;;;7.00;99.90;;;;;;5033314;28;20510;-73
2023/03/27 02:03:36;;;;;;;10.50;4.00;;;7.00;99.90;;;;;;5034727;28;20428;-75
2023/03/27 02:06:07;;;;;;;6.73;2.93;;;7.00;99.90;;;;;;5035265;28;20452;-73
2023/03/27 02:08:45;;;;;;;5.60;3.53;;;7.00;99.90;;;;;;5031993;28;20449;-73
2023/03/27 02:11:11;;;;;;;7.80;2.70;;;6.90;99.90;;;;;;5015203;28;20389;-73
2023/03/27 02:13:44;;;;;;;6.27;3.00;;;6.90;99.90;;;;;;5014278;28;20466;-73
2023/03/27 02:16:14;;;;;;;5.10;3.13;;;7.00;99.90;;;;;;5015139;28;20257;-73
2023/03/27 02:18:46;;;;;;;4.85;3.20;;;6.90;99.90;;;;;;5014537;28;20378;-73
2023/03/27 02:21:13;;;;;;;5.33;3.53;;;6.90;99.90;;;;;;5015011;28;20227;-73
2023/03/27 02:23:40;;;;;;;7.27;3.10;;;7.00;99.90;;;;;;4996426;28;20751;-73
2023/03/27 02:26:10;;;;;;;7.90;2.93;;;7.00;99.90;;;;;;5014878;28;20505;-73
2023/03/27 02:29:00;;;;;;;4.93;3.50;;;7.00;99.90;;;;;;5014077;28;20409;-73
2023/03/27 02:31:44;;;;;;;6.07;3.00;;;7.00;99.90;;;;;;5015672;28;20429;-73
2023/03/27 02:34:49;;;;;;;6.60;3.30;;;7.00;99.90;;;;;;5014843;28;20442;-73
2023/03/27 02:37:52;;;;;;;2.83;2.50;;;7.00;99.90;;;;;;5014830;28;20411;-73
2023/03/27 02:40:57;;;;;;;6.67;2.73;;;7.00;99.90;;;;;;5013980;28;20483;-73
2023/03/27 02:43:52;;;;;;;6.10;3.30;;;7.00;99.90;;;;;;5013719;28;20435;-73
2023/03/27 02:46:39;;;;;;;7.13;3.30;;;7.00;99.90;;;;;;4961000;28;20536;-74
2023/03/27 02:49:12;;;;;;;5.33;3.53;;;7.00;99.90;;;;;;5014865;28;20396;-73
2023/03/27 02:51:56;;;;;;;9.37;3.93;;;6.90;99.90;;;;;;5013965;28;20487;-74
2023/03/27 02:54:31;;;;;;;6.37;3.00;;;7.00;99.90;;;;;;5027220;28;20430;-73
2023/03/27 02:57:03;;;;;;;15.33;3.60;;;6.90;99.90;;;;;;5017789;28;20933;-73
2023/03/27 02:59:43;;;;;;;7.27;3.13;;;6.90;99.90;;;;;;4995243;28;20796;-72
2023/03/27 03:02:19;;;;;;;9.37;3.60;;;7.00;99.90;;;;;;5030086;28;20430;-72
2023/03/27 03:05:09;;;;;;;7.47;3.40;;;6.90;99.90;;;;;;5033574;28;20481;-73
2023/03/27 03:07:37;;;;;;;5.70;3.13;;;6.90;99.90;;;;;;5023595;28;20428;-74
2023/03/27 03:10:06;;;;;;;6.40;3.20;;;6.90;99.90;;;;;;5031198;28;20389;-73
2023/03/27 03:12:32;;;;;;;7.87;3.23;;;6.90;99.90;;;;;;5015416;28;20171;-76
2023/03/27 03:15:00;;;;;;;6.13;3.47;;;6.90;99.90;;;;;;5033847;28;20497;-73
2023/03/27 03:17:25;;;;;;;9.90;3.37;;;7.00;99.90;;;;;;5033657;28;20176;-73
2023/03/27 03:19:52;;;;;;;7.93;3.57;;;7.00;99.90;;;;;;5026776;28;20447;-73
2023/03/27 03:22:18;;;;;;;5.43;3.80;;;7.00;99.90;;;;;;4996407;28;20583;-73
2023/03/27 03:24:43;;;;;;;5.83;3.57;;;7.10;99.90;;;;;;5012878;28;20519;-73
2023/03/27 03:27:11;;;;;;;3.43;3.13;;;7.00;99.90;;;;;;5013736;28;20164;-73
2023/03/27 03:29:37;;;;;;;4.57;3.40;;;7.00;99.90;;;;;;5013358;28;20169;-74
2023/03/27 03:32:06;;;;;;;7.03;3.70;;;7.00;99.90;;;;;;5013447;28;20458;-74
2023/03/27 03:34:32;;;;;;;5.47;3.23;;;7.00;99.90;;;;;;5013687;28;20226;-74
2023/03/27 03:36:59;;;;;;;4.53;3.40;;;6.90;99.90;;;;;;5013166;28;20414;-73
2023/03/27 03:39:25;;;;;;;6.88;3.70;;;6.90;99.90;;;;;;5013849;28;20227;-73
2023/03/27 03:41:50;;;;;;;9.10;6.80;;;6.90;99.90;;;;;;5012652;28;20306;-73
2023/03/27 03:44:17;;;;;;;3.13;2.70;;;6.90;99.90;;;;;;5018764;28;20517;-73
2023/03/27 03:46:42;;;;;;;5.00;2.93;;;6.90;99.90;;;;;;5032545;28;20194;-73
2023/03/27 03:49:10;;;;;;;3.47;3.00;;;6.90;99.90;;;;;;5025656;28;20426;-74
2023/03/27 03:51:36;;;;;;;4.83;3.00;;;6.90;99.90;;;;;;5016073;28;20171;-74
2023/03/27 03:54:04;;;;;;;5.32;2.80;;;6.80;99.90;;;;;;5018779;28;20754;-74
2023/03/27 03:56:30;;;;;;;3.40;2.45;;;6.80;99.90;;;;;;4998994;28;20251;-74
2023/03/27 03:58:56;;;;;;;7.03;2.37;;;6.80;99.90;;;;;;5014711;28;20249;-74
2023/03/27 04:01:22;;;;;;;10.83;3.30;;;6.80;99.90;;;;;;5032902;28;20257;-74
2023/03/27 04:03:49;;;;;;;8.13;2.13;;;6.90;99.90;;;;;;5032390;28;20848;-74
2023/03/27 04:06:19;;;;;;;4.33;3.20;;;6.80;99.90;;;;;;5033011;28;20457;-74
2023/03/27 04:08:45;;;;;;;6.80;2.73;;;6.90;99.90;;;;;;5032399;28;20399;-74
2023/03/27 04:11:11;;;;;;;8.10;3.07;;;6.90;99.90;;;;;;5032102;28;20844;-74
2023/03/27 04:13:37;;;;;;;8.93;3.87;;;6.90;99.90;;;;;;5032230;28;20418;-74
2023/03/27 04:16:03;;;;;;;5.77;2.53;;;6.90;99.90;;;;;;5025888;28;20191;-73
2023/03/27 04:18:31;;;;;;;6.27;2.50;;;6.80;99.90;;;;;;5029464;28;20423;-74
2023/03/27 04:20:57;;;;;;;10.10;2.37;;;6.90;99.90;;;;;;5012458;28;20415;-74
2023/03/27 04:23:29;;;;;;;6.97;3.10;;;6.80;99.90;;;;;;5016011;28;20418;-74
2023/03/27 04:25:58;;;;;;;7.03;3.50;;;6.80;99.90;;;;;;5032034;28;20532;-74
2023/03/27 04:28:29;;;;;;;7.37;2.80;;;6.70;99.90;;;;;;5032315;28;20941;-74
2023/03/27 04:30:55;;;;;;;9.07;2.97;;;6.70;99.90;;;;;;5026452;28;20445;-75
2023/03/27 04:33:21;;;;;;;6.27;4.60;;;6.80;99.90;;;;;;5012868;28;20423;-74
2023/03/27 04:35:51;;;;;;;7.70;3.20;;;6.70;99.90;;;;;;4994820;28;20394;-74
2023/03/27 04:38:18;;;;;;;4.57;2.30;;;6.80;99.90;;;;;;5003055;28;20430;-74
2023/03/27 04:40:48;;;;;;;6.25;3.42;;;6.70;99.90;;;;;;5025159;28;20466;-74
2023/03/27 04:43:15;;;;;;;6.77;3.80;;;6.70;99.90;;;;;;5022826;28;20289;-74
2023/03/27 04:45:46;;;;;;;11.15;2.60;;;6.80;99.90;;;;;;5032020;28;20795;-74
2023/03/27 04:48:12;;;;;;;6.23;2.20;;;6.70;99.90;;;;;;5014807;28;20269;-74
2023/03/27 04:50:39;;;;;;;6.97;2.70;;;6.80;99.90;;;;;;5018173;28;20814;-76
2023/03/27 04:53:07;;;;;;;4.50;2.47;;;6.70;99.90;;;;;;5012168;28;20810;-74
2023/03/27 04:55:36;;;;;;;5.30;3.00;;;6.70;99.90;;;;;;5019356;28;20176;-74
2023/03/27 04:58:06;;;;;;;6.20;5.10;;;6.70;99.90;;;;;;5029315;28;20419;-74
2023/03/27 05:00:32;;;;;;;3.23;2.83;;;6.70;99.90;;;;;;5022683;28;20427;-74
2023/03/27 05:02:59;;;;;;;5.33;4.60;;;6.80;99.90;;;;;;5014400;28;20759;-74
2023/03/27 05:05:26;;;;;;;6.27;3.30;;;6.80;99.90;;;;;;5016329;28;20432;-74
2023/03/27 05:07:52;;;;;;;6.67;3.23;;;6.70;99.90;;;;;;5015514;28;20903;-74
2023/03/27 05:10:18;;;;;;;5.13;3.90;;;6.70;99.90;;;;;;5001881;28;20504;-74
2023/03/27 05:12:46;;;;;;;3.93;3.53;;;6.70;99.90;;;;;;5034410;28;20444;-74
2023/03/27 05:15:12;;;;;;;4.43;3.40;;;6.80;99.90;;;;;;5036234;28;20289;-73
2023/03/27 05:17:42;;;;;;;5.17;3.43;;;6.70;99.90;;;;;;5035953;28;20452;-73
2023/03/27 05:20:11;;;;;;;8.23;4.83;;;6.70;99.90;;;;;;5036049;28;20409;-73
2023/03/27 05:22:37;;;;;;;4.00;3.10;;;6.70;99.90;;;;;;5035882;28;20401;-73
2023/03/27 05:25:04;;;;;;;25.20;4.63;;;6.70;99.90;;;;;;5028560;28;20185;-75
2023/03/27 05:27:29;;;;;;;6.30;3.57;;;6.70;99.90;;;;;;5031486;28;20480;-74
2023/03/27 05:29:56;;;;;;;5.47;3.87;;;6.70;99.90;;;;;;5026070;28;20419;-74
2023/03/27 05:32:22;;;;;;;5.93;3.20;;;6.80;99.90;;;;;;5015980;28;20196;-74
2023/03/27 05:34:49;;;;;;;6.07;5.10;;;6.70;99.90;;;;;;5015384;28;20604;-74
2023/03/27 05:37:18;;;;;;;8.97;3.27;;;6.70;99.90;;;;;;5015857;28;20481;-74
2023/03/27 05:39:47;;;;;;;6.97;4.40;;;6.60;99.90;;;;;;5018085;28;20425;-76
2023/03/27 05:42:13;;;;;;;5.40;4.07;;;6.60;99.90;;;;;;5026098;28;20454;-76
2023/03/27 05:44:41;;;;;;;6.53;3.80;;;7.00;99.90;;;;;;5035705;28;20812;-75
2023/03/27 05:47:09;;;;;;;4.90;3.10;;;7.70;99.90;;;;;;5035289;28;20450;-75
2023/03/27 05:49:35;;;;;;;3.90;3.30;;;8.50;99.90;;;;;;5035361;28;20753;-75
2023/03/27 05:52:02;;;;;;;8.50;5.10;;;9.30;99.90;;;;;;5041375;28;20656;-75
2023/03/27 05:54:28;;;;;;;4.50;3.30;;;10.10;99.90;;;;;;5051111;28;20420;-75
2023/03/27 05:56:54;;;;;;;4.33;3.20;;;10.50;99.90;;;;;;5052888;28;20502;-75
2023/03/27 05:59:19;;;;;;;5.83;5.33;;;11.10;99.90;;;;;;5054224;28;20461;-75
2023/03/27 06:01:47;;;;;;;5.07;4.57;;;11.60;99.90;;;;;;5054456;28;20437;-75
2023/03/27 06:04:16;;;;;;;4.07;3.00;;;12.10;99.90;;;;;;5055208;28;20162;-75
2023/03/27 06:06:43;;;;;;;8.23;5.00;;;12.40;99.20;;;;;;5043678;28;20951;-80
2023/03/27 06:09:11;;;;;;;5.07;3.20;;;12.60;97.50;;;;;;5058316;28;20419;-80
2023/03/27 06:11:38;;;;;;;10.90;4.33;;;12.90;97.90;;;;;;5057675;28;20515;-80
2023/03/27 06:14:04;;;;;;;5.83;4.37;;;13.10;95.40;;;;;;5053190;28;20417;-80
2023/03/27 06:16:29;;;;;;;6.40;3.30;;;13.30;93.90;;;;;;5048090;28;20418;-80
2023/03/27 06:18:56;;;;;;;4.90;4.10;;;13.50;96.60;;;;;;5043107;28;20759;-81
2023/03/27 06:21:22;;;;;;;5.83;3.10;;;13.60;94.00;;;;;;5055112;28;20514;-80
2023/03/27 06:23:47;;;;;;;5.63;4.10;;;13.80;92.60;;;;;;5054414;28;20407;-81
2023/03/27 06:26:14;;;;;;;4.53;3.30;;;13.90;93.60;;;;;;5053283;28;20443;-80
2023/03/27 06:28:40;;;;;;;4.30;3.90;;;14.00;95.40;;;;;;5053686;28;20236;-80
2023/03/27 06:31:06;;;;;;;3.90;3.27;;;14.10;96.30;;;;;;5052717;28;20425;-81
2023/03/27 06:33:32;;;;;;;6.47;4.00;;;14.30;95.20;;;;;;5033025;28;20234;-80
2023/03/27 06:35:59;;;;;;;3.87;3.43;;;14.50;91.40;;;;;;5039412;28;20419;-81
2023/03/27 06:38:31;;;;;;;7.33;4.77;;;14.50;93.70;;;;;;5053430;28;20179;-81
2023/03/27 06:40:58;;;;;;;5.70;4.17;;;14.50;90.60;;;;;;5052639;28;20529;-80
2023/03/27 06:43:24;;;;;;;5.67;4.27;;;14.60;94.70;;;;;;5053856;28;20430;-81
2023/03/27 06:45:51;;;;;;;6.00;3.87;;;14.70;91.10;;;;;;5051665;28;20533;-81
2023/03/27 06:48:18;;;;;;;3.80;3.43;;;14.70;86.40;;;;;;5028333;28;20431;-81
2023/03/27 06:50:47;;;;;;;4.20;3.40;;;14.80;93.70;;;;;;5048332;28;20427;-81
2023/03/27 06:53:15;;;;;;;5.60;3.50;;;14.80;92.30;;;;;;5035067;28;20420;-81
2023/03/27 06:55:41;;;;;;;4.80;3.47;;;14.90;92.50;;;;;;5033537;28;20423;-81
2023/03/27 06:58:12;;;;;;;7.00;3.60;;;15.00;91.90;;;;;;5033790;28;20408;-81
2023/03/27 07:00:39;;;;;;;3.27;3.07;;;15.00;84.00;;;;;;5033249;28;20904;-81
2023/03/27 07:03:08;;;;;;;5.13;3.40;;;15.10;88.00;;;;;;5043203;28;20730;-81
2023/03/27 07:05:36;;;;;;;3.50;3.17;;;15.10;86.90;;;;;;5051042;28;20453;-81
2023/03/27 07:08:10;;;;;;;5.13;3.47;;;15.10;85.90;;;;;;5041270;28;20416;-81
2023/03/27 07:10:37;;;;;;;6.90;3.60;;;15.10;82.50;;;;;;5053253;28;20418;-81
2023/03/27 07:13:03;;;;;;;4.80;4.40;;;15.10;83.60;;;;;;5053604;28;20458;-80
2023/03/27 07:15:29;;;;;;;5.10;3.70;;;15.00;79.80;;;;;;5056103;28;20415;-80
2023/03/27 07:18:00;;;;;;;4.93;4.03;;;15.00;80.70;;;;;;5049168;28;20759;-80
2023/03/27 07:20:27;;;;;;;5.87;4.07;;;15.10;90.60;;;;;;5044560;28;20404;-77
2023/03/27 07:22:56;;;;;;;3.80;3.50;;;14.90;75.70;;;;;;5036616;28;20512;-78
2023/03/27 07:25:23;;;;;;;5.00;3.77;;;14.40;73.20;;;;;;5033753;28;20459;-77
2023/03/27 07:27:49;;;;;;;5.83;5.33;;;13.90;73.40;;;;;;5050069;28;20419;-77
2023/03/27 07:30:15;;;;;;;5.60;3.27;;;13.30;74.50;;;;;;5053488;28;20420;-77
2023/03/27 07:32:43;;;;;;;11.13;3.83;;;12.80;76.60;;;;;;5053415;28;20176;-77
2023/03/27 07:35:10;;;;;;;4.90;4.20;;;12.30;78.70;;;;;;5053045;28;20400;-78
2023/03/27 07:37:37;;;;;;;5.67;3.17;;;11.90;80.70;;;;;;5053071;28;20982;-78
2023/03/27 07:40:08;;;;;;;4.00;3.20;;;11.50;83.70;;;;;;5053068;28;20507;-83
2023/03/27 07:42:34;;;;;;;4.70;3.17;;;11.30;85.10;;;;;;5034360;28;20463;-80
2023/03/27 07:45:01;;;;;;;3.23;2.90;;;10.90;85.10;;;;;;5049881;28;21494;-77
2023/03/27 07:47:27;;;;;;;3.50;2.70;;;10.60;87.90;;;;;;5032216;28;20179;-78
2023/03/27 07:49:53;;;;;;;4.40;3.30;;;10.30;90.30;;;;;;5032666;28;20398;-80
2023/03/27 07:52:18;;;;;;;3.90;3.20;;;10.20;90.90;;;;;;5041561;28;20558;-82
2023/03/27 07:54:46;;;;;;;3.60;2.67;;;9.80;91.70;;;;;;5052539;28;20407;-77
2023/03/27 07:57:14;;;;;;;7.73;3.73;;;9.60;92.50;;;;;;5051031;28;20211;-76
2023/03/27 07:59:40;;;;;;;5.43;2.93;;;9.50;93.20;;;;;;5039619;28;20411;-75
2023/03/27 08:02:06;;;;;;;4.83;4.40;;;9.40;95.00;;;;;;5031509;28;20401;-76
2023/03/27 08:04:31;;;;;;;9.17;3.10;;;9.40;93.40;;;;;;5033282;28;20416;-76
2023/03/27 08:06:58;;;;;;;3.10;2.40;;;9.40;93.90;;;;;;5032640;28;20205;-77
2023/03/27 08:09:23;;;;;;;6.50;2.43;;;9.50;93.50;;;;;;5053271;28;20200;-76
2023/03/27 08:11:50;;;;;;;7.10;2.43;;;9.40;93.10;;;;;;5052982;28;20931;-76
2023/03/27 08:14:16;;;;;;;5.10;2.30;;;9.40;94.20;;;;;;5053039;28;20188;-76
2023/03/27 08:16:42;;;;;;;3.33;2.30;;;9.40;93.90;;;;;;5047919;28;20432;-79
2023/03/27 08:19:10;;;;;;;3.90;2.93;;;9.40;94.80;;;;;;5052175;28;20177;-79
2023/03/27 08:21:35;;;;;;;4.70;2.90;;;9.40;94.50;;;;;;5053145;28;20510;-79
2023/03/27 08:24:03;;;;;;;5.77;2.87;;;9.40;93.20;;;;;;5052112;28;20484;-79
2023/03/27 08:26:31;;;;;;;3.40;2.57;;;9.40;92.70;;;;;;5052682;28;20208;-79
2023/03/27 08:28:57;;;;;;;4.60;3.27;;;9.40;92.70;;;;;;5047718;28;20412;-80
2023/03/27 08:31:24;;;;;;;2.63;2.43;;;9.50;92.20;;;;;;5042045;28;20404;-80
2023/03/27 08:33:50;;;;;;;3.80;3.50;;;9.30;92.40;;;;;;5036399;28;20421;-80
2023/03/27 08:36:18;;;;;;;3.70;3.53;;;9.40;93.00;;;;;;5032523;28;20869;-80
2023/03/27 08:38:45;;;;;;;3.73;3.53;;;9.40;93.40;;;;;;5036962;28;20746;-79
2023/03/27 08:41:27;;;;;;;5.00;2.80;;;9.40;92.80;;;;;;5034288;28;20871;-79
2023/03/27 08:43:55;;;;;;;5.30;2.60;;;9.30;91.80;;;;;;5000191;28;20418;-80
2023/03/27 08:46:36;;;;;;;3.27;2.67;;;9.30;92.10;;;;;;5027835;28;20453;-79
2023/03/27 08:49:14;;;;;;;2.37;2.20;;;9.30;92.50;;;;;;5029894;28;20434;-81
2023/03/27 08:51:49;;;;;;;3.63;3.33;;;9.20;91.20;;;;;;4983535;28;20420;-80
2023/03/27 08:54:24;;;;;;;3.30;2.60;;;9.20;93.20;;;;;;5017717;28;20405;-80
2023/03/27 08:56:50;;;;;;;3.90;3.60;;;9.20;92.80;;;;;;5036292;28;20417;-80
2023/03/27 08:59:21;;;;;;;4.30;2.83;;;9.20;92.30;;;;;;5035748;28;20404;-78
2023/03/27 09:02:20;;;;;;;4.10;2.73;;;9.30;93.10;;;;;;5036453;28;20451;-79
2023/03/27 09:05:24;;;;;;;2.57;2.43;;;9.30;93.30;;;;;;5032250;28;20410;-80
2023/03/27 09:08:27;;;;;;;6.33;2.43;;;9.40;92.00;;;;;;5033334;28;20959;-80
2023/03/27 09:11:10;;;;;;;4.33;3.30;;;9.50;90.70;;;;;;5014219;28;20460;-79
2023/03/27 09:13:46;;;;;;;4.07;3.77;;;9.60;90.80;;;;;;5016412;28;20460;-79
2023/03/27 09:16:16;;;;;;;4.73;2.43;;;9.70;90.70;;;;;;5023696;28;20759;-79
2023/03/27 09:19:12;;;;;;;4.00;3.60;;;9.80;91.30;;;;;;5018747;28;20918;-80
2023/03/27 09:21:47;;;;;;;4.43;2.80;;;9.80;91.10;;;;;;5021549;28;20745;-80
2023/03/27 09:24:31;;;;;;;3.87;3.03;;;9.70;90.40;;;;;;5034522;28;20409;-80
2023/03/27 09:27:04;;;;;;;3.23;2.50;;;9.90;91.70;;;;;;5034894;28;20445;-79
2023/03/27 09:29:35;;;;;;;3.73;3.07;;;9.80;91.80;;;;;;5025668;28;20425;-79
2023/03/27 09:32:00;;;;;;;6.83;3.37;;;9.60;91.80;;;;;;5028633;28;20803;-79
2023/03/27 09:34:29;;;;;;;4.03;2.90;;;9.70;91.90;;;;;;4997011;28;20421;-79
2023/03/27 09:36:58;;;;;;;4.17;3.70;;;9.70;91.60;;;;;;5023473;28;20174;-79
2023/03/27 09:39:32;;;;;;;4.20;3.90;;;9.90;91.80;;;;;;5019821;28;20423;-76
2023/03/27 09:42:20;;;;;;;5.33;3.50;;;10.10;90.80;;;;;;5019033;28;20555;-78
2023/03/27 09:44:50;;;;;;;3.90;3.30;;;10.30;89.60;;;;;;5010094;28;20422;-78
2023/03/27 09:47:37;;;;;;;4.07;2.77;;;10.60;86.10;;;;;;5034414;28;20454;-78
2023/03/27 09:50:27;;;;;;;4.23;3.83;;;10.60;86.40;;;;;;5034782;28;20501;-79
2023/03/27 09:53:26;;;;;;;6.93;3.10;;;10.70;87.60;;;;;;5035308;28;20453;-78
2023/03/27 09:55:58;;;;;;;3.03;2.60;;;11.00;86.70;;;;;;5032589;28;20768;-77
2023/03/27 09:58:30;;;;;;;3.00;2.73;;;11.30;85.60;;;;;;5015540;28;20425;-78
2023/03/27 10:01:06;;;;;;;3.63;2.80;;;11.30;84.10;;;;;;5015592;28;20393;-78
2023/03/27 10:03:41;;;;;;;4.40;3.00;;;11.40;82.00;;;;;;5015538;28;20406;-79
2023/03/27 10:06:12;;;;;;;5.17;2.23;;;11.40;81.50;;;;;;5016095;28;20546;-78
2023/03/27 10:08:46;;;;;;;3.07;2.80;;;11.30;80.00;;;;;;5016900;28;20390;-76
2023/03/27 10:11:19;;;;;;;2.37;2.27;;;11.10;81.50;;;;;;5007508;28;20443;-76
2023/03/27 10:13:50;;;;;;;3.90;3.60;;;11.10;81.00;;;;;;5017356;28;20401;-76
2023/03/27 10:16:18;;;;;;;2.73;2.40;;;11.00;82.40;;;;;;5016580;28;20763;-76
2023/03/27 10:18:50;;;;;;;3.43;3.13;;;10.90;82.90;;;;;;5015235;28;20434;-76
2023/03/27 10:21:24;;;;;;;4.20;3.80;;;10.90;81.30;;;;;;4997185;28;20416;-76
2023/03/27 10:23:51;;;;;;;3.67;2.70;;;10.80;85.10;;;;;;4998575;28;20726;-76
2023/03/27 10:26:24;;;;;;;3.30;2.40;;;11.00;85.40;;;;;;5014359;28;20510;-76
2023/03/27 10:28:51;;;;;;;2.90;2.70;;;11.20;82.60;;;;;;5014915;28;20480;-73
2023/03/27 10:31:31;;;;;;;4.00;2.70;;;11.40;78.40;;;;;;5014096;28;20492;-76
2023/03/27 10:34:00;;;;;;;2.17;2.07;;;11.50;82.40;;;;;;4997376;28;20405;-75
2023/03/27 10:36:30;;;;;;;3.70;2.53;;;11.60;82.70;;;;;;4997228;28;20429;-80
2023/03/27 10:39:04;;;;;;;1.60;1.27;;;11.50;77.70;;;;;;5014791;28;20473;-79
2023/03/27 10:41:34;;;;;;;3.00;2.10;;;11.50;74.70;;;;;;5002427;28;20471;-79
2023/03/27 10:44:00;;;;;;;1.80;1.70;;;11.50;74.50;;;;;;5032626;28;20436;-79
2023/03/27 10:46:28;;;;;;;2.70;2.30;;;11.40;73.00;;;;;;5034440;28;20530;-79
2023/03/27 10:49:13;;;;;;;2.87;1.80;;;11.30;74.00;;;;;;5032881;28;20200;-79
2023/03/27 10:51:56;;;;;;;2.57;2.20;;;11.20;76.10;;;;;;5034345;28;20907;-79
2023/03/27 10:55:04;;;;;;;4.17;3.13;;;11.00;79.00;;;;;;5017107;28;20448;-79
2023/03/27 10:57:36;;;;;;;2.33;2.00;;;10.90;82.60;;;;;;5037118;28;20756;-80
2023/03/27 11:00:21;;;;;;;2.90;2.70;;;11.00;80.60;;;;;;5020673;28;20841;-81
2023/03/27 11:03:03;;;;;;;3.90;2.07;;;11.10;84.20;;;;;;5026447;28;20407;-79
2023/03/27 11:05:37;;;;;;;4.93;1.97;;;11.30;81.80;;;;;;5021359;28;20543;-79
2023/03/27 11:08:27;;;;;;;2.00;1.90;;;11.50;84.20;;;;;;5034051;28;20393;-79
2023/03/27 11:10:57;;;;;;;2.20;2.10;;;11.60;78.70;;;;;;5034268;28;20430;-79
2023/03/27 11:13:32;;;;;;;2.10;2.00;;;12.00;78.90;;;;;;5048384;28;20448;-79
2023/03/27 11:16:19;;;;;;;3.83;2.10;;;12.20;77.20;;;;;;5034155;28;20460;-79
2023/03/27 11:18:54;;;;;;;3.10;2.90;;;12.10;74.70;;;;;;5048965;28;20406;-79
2023/03/27 11:21:53;;;;;;;5.20;3.20;;;12.30;73.80;;;;;;5032125;28;20447;-79
2023/03/27 11:24:32;;;;;;;3.30;3.10;;;12.50;76.20;;;;;;5029859;28;20426;-80
2023/03/27 11:27:14;;;;;;;3.43;2.50;;;12.80;74.40;;;;;;5019041;28;20455;-80
2023/03/27 11:30:11;;;;;;;2.63;2.43;;;13.00;73.80;;;;;;5045793;28;20427;-79
2023/03/27 11:32:40;;;;;;;2.80;2.60;;;13.20;74.00;;;;;;5052243;28;20409;-80
2023/03/27 11:35:16;;;;;;;2.50;2.40;;;13.50;72.70;;;;;;5051831;28;20418;-80
2023/03/27 11:38:07;;;;;;;2.77;2.17;;;13.70;68.30;;;;;;5053339;28;20402;-79
2023/03/27 11:40:42;;;;;;;2.50;2.20;;;13.50;67.70;;;;;;5053129;28;20972;-79
2023/03/27 11:43:12;;;;;;;2.57;2.37;;;13.40;65.20;;;;;;5050993;28;20605;-80
2023/03/27 11:45:53;;;;;;;1.90;1.80;;;13.30;66.00;;;;;;5053514;28;20461;-79
2023/03/27 11:48:57;;;;;;;4.90;2.93;;;13.30;69.30;;;;;;5052996;28;20447;-80
2023/03/27 11:51:25;;;;;;;3.40;3.10;;;13.40;71.00;;;;;;5053024;28;20834;-79
2023/03/27 11:54:09;;;;;;;3.30;3.10;;;13.70;69.70;;;;;;5052111;28;20433;-79
2023/03/27 11:56:42;;;;;;;2.53;2.33;;;13.70;64.10;;;;;;5049061;28;20442;-79
2023/03/27 11:59:39;;;;;;;1.83;1.60;;;13.60;63.60;;;;;;5031257;28;20412;-79
2023/03/27 12:02:27;;;;;;;1.70;1.60;;;13.40;63.70;;;;;;5032982;28;20454;-80
2023/03/27 12:05:22;;;;;;;2.47;2.27;;;13.20;65.50;;;;;;5032797;28;20730;-79
2023/03/27 12:08:00;;;;;;;2.50;2.40;;;12.90;64.30;;;;;;5032055;28;20422;-80
2023/03/27 12:10:32;;;;;;;3.23;2.93;;;12.60;69.90;;;;;;5030746;28;20446;-79
2023/03/27 12:13:35;;;;;;;2.27;2.17;;;12.20;85.90;;;;;;5033126;28;20880;-79
2023/03/27 12:16:25;;;;;;;2.20;2.10;;;11.80;88.10;;;;;;5032064;28;20445;-79
2023/03/27 12:19:12;;;;;;;2.60;2.40;;;11.70;91.20;;;;;;5015537;28;20757;-79
2023/03/27 12:21:54;;;;;;;1.47;1.37;;;11.80;94.00;;;;;;5031858;28;20393;-79
2023/03/27 12:24:49;;;;;;;1.80;1.70;;;11.90;91.60;;;;;;5031103;28;20482;-80
2023/03/27 12:27:18;;;;;;;2.60;2.40;;;12.00;91.50;;;;;;4995229;28;20464;-80
2023/03/27 12:30:00;;;;;;;2.40;2.13;;;12.10;90.00;;;;;;5051448;28;20432;-80
2023/03/27 12:32:28;;;;;;;2.40;2.30;;;12.20;91.50;;;;;;5050784;28;20427;-80
2023/03/27 12:35:27;;;;;;;1.90;1.90;;;12.40;92.20;;;;;;5052620;28;20509;-79
2023/03/27 12:38:00;;;;;;;2.30;2.20;;;12.60;90.70;;;;;;5035965;28;20915;-79
2023/03/27 12:41:01;;;;;;;1.90;1.80;;;12.70;91.30;;;;;;5051095;28;20447;-79
2023/03/27 12:43:32;;;;;;;3.53;2.43;;;12.80;90.00;;;;;;5037964;28;20437;-79
2023/03/27 12:46:14;;;;;;;3.50;2.20;;;12.80;85.10;;;;;;5052774;28;20796;-79
2023/03/27 12:49:00;;;;;;;4.33;2.90;;;12.80;82.00;;;;;;5052975;28;20393;-79
2023/03/27 12:51:38;;;;;;;2.17;2.07;;;12.70;83.00;;;;;;5050438;28;20929;-80
2023/03/27 12:54:20;;;;;;;2.20;2.00;;;12.70;81.00;;;;;;5034751;28;20417;-79
2023/03/27 12:56:58;;;;;;;3.77;3.47;;;12.60;83.30;;;;;;5051332;28;20410;-81
2023/03/27 12:59:27;;;;;;;3.40;3.27;;;12.70;82.80;;;;;;5050566;28;20417;-79
2023/03/27 13:02:02;;;;;;;10.40;2.30;;;12.90;82.20;;;;;;5051293;28;20416;-79
2023/03/27 13:05:09;;;;;;;3.00;2.53;;;13.00;79.80;;;;;;5050899;28;20749;-78
2023/03/27 13:07:59;;;;;;;2.70;2.27;;;13.00;80.90;;;;;;5034748;28;20960;-79
2023/03/27 13:10:45;;;;;;;3.60;3.40;;;13.00;78.50;;;;;;5051502;28;20394;-79
2023/03/27 13:13:23;;;;;;;2.67;2.50;;;12.90;77.30;;;;;;5032619;28;20429;-79
2023/03/27 13:16:17;;;;;;;3.13;2.83;;;12.80;77.80;;;;;;5030925;28;20446;-80
2023/03/27 13:18:56;;;;;;;3.00;2.80;;;12.60;76.50;;;;;;5032189;28;20472;-80
2023/03/27 13:21:58;;;;;;;3.13;2.93;;;12.50;77.00;;;;;;5030469;28;20441;-80
2023/03/27 13:24:42;;;;;;;3.70;2.10;;;12.30;77.40;;;;;;5017074;28;20401;-81
2023/03/27 13:27:15;;;;;;;2.20;1.90;;;11.70;86.40;;;;;;5034757;28;20450;-82